createdAt,value
2023-01-10T00:00:26.822Z,997.72
2023-01-10T00:01:26.673Z,997.78
2023-01-10T00:02:26.732Z,997.72
2023-01-10T00:03:26.698Z,997.73
2023-01-10T00:04:26.750Z,997.69
2023-01-10T00:05:26.626Z,997.79
2023-01-10T00:06:26.613Z,997.73
2023-01-10T00:07:26.613Z,997.75
2023-01-10T00:08:26.589Z,997.75
2023-01-10T00:09:26.570Z,997.77
2023-01-10T00:10:26.587Z,997.79
2023-01-10T00:11:26.552Z,997.77
2023-01-10T00:12:26.551Z,997.82
2023-01-10T00:13:26.522Z,997.82
2023-01-10T00:14:26.517Z,997.79
2023-01-10T00:15:26.504Z,997.83
2023-01-10T00:16:26.505Z,997.82
2023-01-10T00:17:26.488Z,997.77
2023-01-10T00:18:26.459Z,997.76
2023-01-10T00:19:26.445Z,997.76
2023-01-10T00:20:26.438Z,997.84
2023-01-10T00:21:26.428Z,997.82
2023-01-10T00:22:26.428Z,997.86
2023-01-10T00:23:26.395Z,997.90
2023-01-10T00:24:26.394Z,997.87
2023-01-10T00:25:26.375Z,997.96
2023-01-10T00:26:26.388Z,997.93
2023-01-10T00:27:26.367Z,997.90
2023-01-10T00:28:26.339Z,997.94
2023-01-10T00:29:26.371Z,997.95
2023-01-10T00:30:26.309Z,997.99
2023-01-10T00:31:26.356Z,998.02
2023-01-10T00:32:26.307Z,998.03
2023-01-10T00:33:26.263Z,998.08
2023-01-10T00:34:26.253Z,998.12
2023-01-10T00:35:26.257Z,998.22
2023-01-10T00:36:26.237Z,998.21
2023-01-10T00:37:26.225Z,998.24
2023-01-10T00:38:26.205Z,998.29
2023-01-10T00:39:26.203Z,998.31
2023-01-10T00:40:26.177Z,998.34
2023-01-10T00:41:26.161Z,998.34
2023-01-10T00:42:26.177Z,998.36
2023-01-10T00:43:26.155Z,998.31
2023-01-10T00:44:26.128Z,998.35
2023-01-10T00:45:26.115Z,998.36
2023-01-10T00:46:26.167Z,998.33
2023-01-10T00:47:26.088Z,998.36
2023-01-10T00:48:26.102Z,998.44
2023-01-10T00:49:26.071Z,998.42
2023-01-10T00:50:26.046Z,998.48
2023-01-10T00:51:26.037Z,998.56
2023-01-10T00:52:26.022Z,998.63
2023-01-10T00:53:26.028Z,998.63
2023-01-10T00:54:26.016Z,998.68
2023-01-10T00:55:25.988Z,998.70
2023-01-10T00:56:25.967Z,998.68
2023-01-10T00:57:25.954Z,998.71
2023-01-10T00:58:25.981Z,998.69
2023-01-10T00:59:25.936Z,998.75
2023-01-10T01:00:25.916Z,998.75
2023-01-10T01:01:26.077Z,998.73
2023-01-10T01:02:26.004Z,998.76
2023-01-10T01:03:25.891Z,998.76
2023-01-10T01:04:25.871Z,998.77
2023-01-10T01:05:25.853Z,998.80
2023-01-10T01:06:25.845Z,998.85
2023-01-10T01:07:25.828Z,998.90
2023-01-10T01:08:25.832Z,998.89
2023-01-10T01:09:25.805Z,998.91
2023-01-10T01:10:25.798Z,998.93
2023-01-10T01:11:25.799Z,998.91
2023-01-10T01:12:25.771Z,998.92
2023-01-10T01:13:25.788Z,998.97
2023-01-10T01:14:25.767Z,999.03
2023-01-10T01:15:25.728Z,999.07
2023-01-10T01:16:25.714Z,999.13
2023-01-10T01:17:25.695Z,999.17
2023-01-10T01:18:25.701Z,999.15
2023-01-10T01:19:25.678Z,999.22
2023-01-10T01:20:25.664Z,999.25
2023-01-10T01:21:25.651Z,999.28
2023-01-10T01:22:25.637Z,999.25
2023-01-10T01:23:25.639Z,999.34
2023-01-10T01:24:25.609Z,999.36
2023-01-10T01:25:25.615Z,999.38
2023-01-10T01:26:25.598Z,999.48
2023-01-10T01:27:25.583Z,999.52
2023-01-10T01:28:25.580Z,999.56
2023-01-10T01:29:29.988Z,999.64
2023-01-10T01:30:26.563Z,999.65
2023-01-10T01:31:25.570Z,999.65
2023-01-10T01:32:25.516Z,999.69
2023-01-10T01:33:25.507Z,999.75
2023-01-10T01:34:25.482Z,999.76
2023-01-10T01:35:25.484Z,999.75
2023-01-10T01:36:25.455Z,999.76
2023-01-10T01:37:25.445Z,999.80
2023-01-10T01:38:25.455Z,999.85
2023-01-10T01:39:25.421Z,999.88
2023-01-10T01:40:25.421Z,999.94
2023-01-10T01:41:25.401Z,999.88
2023-01-10T01:42:25.378Z,1000.02
2023-01-10T01:43:25.381Z,1000.03
2023-01-10T01:44:25.359Z,1000.02
2023-01-10T01:45:25.342Z,1000.06
2023-01-10T01:46:25.420Z,1000.08
2023-01-10T01:47:25.315Z,1000.05
2023-01-10T01:48:25.317Z,1000.11
2023-01-10T01:49:25.321Z,1000.05
2023-01-10T01:50:25.281Z,1000.09
2023-01-10T01:51:25.261Z,1000.12
2023-01-10T01:52:25.250Z,1000.16
2023-01-10T01:53:25.249Z,1000.18
2023-01-10T01:54:25.230Z,1000.27
2023-01-10T01:55:25.213Z,1000.28
2023-01-10T01:56:25.197Z,1000.36
2023-01-10T01:57:25.184Z,1000.41
2023-01-10T01:58:25.211Z,1000.41
2023-01-10T01:59:25.159Z,1000.50
2023-01-10T02:00:25.150Z,1000.48
2023-01-10T02:01:25.307Z,1000.50
2023-01-10T02:02:25.194Z,1000.56
2023-01-10T02:03:25.130Z,1000.60
2023-01-10T02:04:25.110Z,1000.58
2023-01-10T02:05:25.082Z,1000.58
2023-01-10T02:06:25.125Z,1000.63
2023-01-10T02:07:25.059Z,1000.64
2023-01-10T02:08:25.044Z,1000.66
2023-01-10T02:09:25.045Z,1000.71
2023-01-10T02:10:25.019Z,1000.64
2023-01-10T02:11:25.005Z,1000.68
2023-01-10T02:12:24.991Z,1000.73
2023-01-10T02:13:24.981Z,1000.69
2023-01-10T02:14:24.981Z,1000.69
2023-01-10T02:15:24.958Z,1000.75
2023-01-10T02:16:24.951Z,1000.73
2023-01-10T02:17:24.934Z,1000.74
2023-01-10T02:18:24.935Z,1000.77
2023-01-10T02:19:24.915Z,1000.82
2023-01-10T02:20:24.887Z,1000.80
2023-01-10T02:21:24.874Z,1000.81
2023-01-10T02:22:24.861Z,1000.83
2023-01-10T02:23:24.850Z,1000.87
2023-01-10T02:24:24.860Z,1000.88
2023-01-10T02:25:24.830Z,1000.90
2023-01-10T02:26:24.810Z,1000.85
2023-01-10T02:27:24.802Z,1000.91
2023-01-10T02:28:24.790Z,1000.87
2023-01-10T02:29:24.788Z,1000.86
2023-01-10T02:30:24.764Z,1000.93
2023-01-10T02:31:24.789Z,1000.93
2023-01-10T02:32:40.691Z,1000.94
2023-01-10T02:33:24.721Z,1000.96
2023-01-10T02:34:24.749Z,1000.93
2023-01-10T02:35:24.697Z,1000.97
2023-01-10T02:36:24.679Z,1000.98
2023-01-10T02:37:24.664Z,1000.98
2023-01-10T02:38:24.656Z,1000.98
2023-01-10T02:39:24.666Z,1000.98
2023-01-10T02:40:24.631Z,1000.96
2023-01-10T02:41:24.619Z,1001.06
2023-01-10T02:42:24.605Z,1001.01
2023-01-10T02:43:24.590Z,1001.07
2023-01-10T02:44:24.598Z,1001.13
2023-01-10T02:45:24.564Z,1001.12
2023-01-10T02:46:24.608Z,1001.12
2023-01-10T02:47:24.537Z,1001.14
2023-01-10T02:48:24.531Z,1001.16
2023-01-10T02:49:24.526Z,1001.16
2023-01-10T02:50:24.523Z,1001.08
2023-01-10T02:51:24.500Z,1001.16
2023-01-10T02:52:24.491Z,1001.18
2023-01-10T02:53:24.477Z,1001.16
2023-01-10T02:54:24.463Z,1001.22
2023-01-10T02:55:24.434Z,1001.23
2023-01-10T02:56:24.428Z,1001.31
2023-01-10T02:57:24.426Z,1001.31
2023-01-10T02:58:24.400Z,1001.31
2023-01-10T02:59:24.402Z,1001.38
2023-01-10T03:00:24.379Z,1001.35
2023-01-10T03:01:24.479Z,1001.37
2023-01-10T03:02:24.346Z,1001.38
2023-01-10T03:03:24.336Z,1001.40
2023-01-10T03:04:24.376Z,1001.44
2023-01-10T03:05:24.315Z,1001.43
2023-01-10T03:06:24.317Z,1001.45
2023-01-10T03:07:24.297Z,1001.48
2023-01-10T03:08:24.269Z,1001.50
2023-01-10T03:09:24.275Z,1001.51
2023-01-10T03:10:24.241Z,1001.53
2023-01-10T03:11:24.230Z,1001.50
2023-01-10T03:12:24.220Z,1001.47
2023-01-10T03:13:24.205Z,1001.56
2023-01-10T03:14:24.216Z,1001.50
2023-01-10T03:15:24.182Z,1001.46
2023-01-10T03:16:24.186Z,1001.59
2023-01-10T03:17:24.159Z,1001.60
2023-01-10T03:18:24.136Z,1001.58
2023-01-10T03:19:24.140Z,1001.58
2023-01-10T03:20:24.121Z,1001.63
2023-01-10T03:21:24.107Z,1001.56
2023-01-10T03:22:24.104Z,1001.67
2023-01-10T03:23:24.078Z,1001.60
2023-01-10T03:24:24.081Z,1001.53
2023-01-10T03:25:24.064Z,1001.50
2023-01-10T03:26:24.035Z,1001.53
2023-01-10T03:27:24.048Z,1001.56
2023-01-10T03:28:24.016Z,1001.53
2023-01-10T03:29:23.997Z,1001.58
2023-01-10T03:30:24.000Z,1001.63
2023-01-10T03:31:24.074Z,1001.53
2023-01-10T03:32:23.959Z,1001.59
2023-01-10T03:33:23.948Z,1001.58
2023-01-10T03:34:23.934Z,1001.64
2023-01-10T03:35:23.938Z,1001.65
2023-01-10T03:36:23.908Z,1001.73
2023-01-10T03:37:23.901Z,1001.75
2023-01-10T03:38:23.906Z,1001.83
2023-01-10T03:39:23.879Z,1001.85
2023-01-10T03:40:23.874Z,1001.85
2023-01-10T03:41:23.845Z,1001.85
2023-01-10T03:42:23.829Z,1001.89
2023-01-10T03:43:23.822Z,1001.86
2023-01-10T03:44:23.809Z,1001.95
2023-01-10T03:45:23.810Z,1001.97
2023-01-10T03:46:23.804Z,1002.01
2023-01-10T03:47:23.778Z,1002.04
2023-01-10T03:48:23.767Z,1002.06
2023-01-10T03:49:23.756Z,1002.13
2023-01-10T03:50:23.753Z,1002.13
2023-01-10T03:51:23.721Z,1002.18
2023-01-10T03:52:23.701Z,1002.24
2023-01-10T03:53:23.693Z,1002.28
2023-01-10T03:54:23.695Z,1002.34
2023-01-10T03:55:23.679Z,1002.30
2023-01-10T03:56:23.649Z,1002.19
2023-01-10T03:57:23.640Z,1002.23
2023-01-10T03:58:23.625Z,1002.35
2023-01-10T03:59:23.613Z,1002.31
2023-01-10T04:00:23.618Z,1002.31
2023-01-10T04:01:23.718Z,1002.34
2023-01-10T04:02:23.574Z,1002.41
2023-01-10T04:03:23.565Z,1002.36
2023-01-10T04:04:23.603Z,1002.42
2023-01-10T04:05:23.554Z,1002.42
2023-01-10T04:06:23.522Z,1002.38
2023-01-10T04:07:23.516Z,1002.36
2023-01-10T04:08:23.499Z,1002.35
2023-01-10T04:09:23.494Z,1002.39
2023-01-10T04:10:25.220Z,1002.37
2023-01-10T04:11:23.460Z,1002.45
2023-01-10T04:12:23.448Z,1002.50
2023-01-10T04:13:23.438Z,1002.54
2023-01-10T04:14:23.430Z,1002.53
2023-01-10T04:15:23.423Z,1002.50
2023-01-10T04:16:23.423Z,1002.58
2023-01-10T04:17:23.389Z,1002.57
2023-01-10T04:18:23.366Z,1002.63
2023-01-10T04:19:23.357Z,1002.64
2023-01-10T04:20:23.355Z,1002.69
2023-01-10T04:21:23.333Z,1002.69
2023-01-10T04:22:23.322Z,1002.69
2023-01-10T04:23:23.308Z,1002.71
2023-01-10T04:24:23.288Z,1002.72
2023-01-10T04:25:23.291Z,1002.72
2023-01-10T04:26:23.290Z,1002.78
2023-01-10T04:27:23.256Z,1002.81
2023-01-10T04:28:24.583Z,1002.78
2023-01-10T04:29:23.229Z,1002.81
2023-01-10T04:30:23.232Z,1002.76
2023-01-10T04:31:23.257Z,1002.78
2023-01-10T04:32:23.196Z,1002.82
2023-01-10T04:33:23.187Z,1002.84
2023-01-10T04:34:23.167Z,1002.84
2023-01-10T04:35:23.167Z,1002.86
2023-01-10T04:36:23.136Z,1002.92
2023-01-10T04:37:23.124Z,1002.90
2023-01-10T04:38:23.107Z,1002.93
2023-01-10T04:39:23.099Z,1002.94
2023-01-10T04:40:23.103Z,1002.95
2023-01-10T04:41:23.082Z,1003.00
2023-01-10T04:42:23.079Z,1003.08
2023-01-10T04:43:23.051Z,1003.11
2023-01-10T04:44:23.035Z,1003.07
2023-01-10T04:45:23.036Z,1003.14
2023-01-10T04:46:23.007Z,1003.16
2023-01-10T04:47:22.997Z,1003.16
2023-01-10T04:48:22.973Z,1003.18
2023-01-10T04:49:22.968Z,1003.21
2023-01-10T04:50:22.969Z,1003.19
2023-01-10T04:51:22.940Z,1003.20
2023-01-10T04:52:22.930Z,1003.22
2023-01-10T04:53:22.909Z,1003.25
2023-01-10T04:54:22.896Z,1003.23
2023-01-10T04:55:22.891Z,1003.23
2023-01-10T04:56:22.886Z,1003.21
2023-01-10T04:57:22.861Z,1003.22
2023-01-10T04:58:22.865Z,1003.21
2023-01-10T04:59:22.839Z,1003.25
2023-01-10T05:00:22.819Z,1003.14
2023-01-10T05:01:22.873Z,1003.20
2023-01-10T05:02:22.931Z,1003.22
2023-01-10T05:03:22.786Z,1003.23
2023-01-10T05:04:22.777Z,1003.24
2023-01-10T05:05:22.758Z,1003.25
2023-01-10T05:06:22.776Z,1003.23
2023-01-10T05:07:22.747Z,1003.29
2023-01-10T05:08:22.725Z,1003.23
2023-01-10T05:09:22.710Z,1003.27
2023-01-10T05:10:22.693Z,1003.27
2023-01-10T05:11:22.703Z,1003.36
2023-01-10T05:12:22.677Z,1003.35
2023-01-10T05:13:22.650Z,1003.35
2023-01-10T05:14:22.667Z,1003.42
2023-01-10T05:15:22.622Z,1003.44
2023-01-10T05:16:22.675Z,1003.44
2023-01-10T05:17:22.602Z,1003.49
2023-01-10T05:18:22.593Z,1003.50
2023-01-10T05:19:22.566Z,1003.55
2023-01-10T05:20:22.560Z,1003.55
2023-01-10T05:21:22.567Z,1003.56
2023-01-10T05:22:22.551Z,1003.55
2023-01-10T05:23:22.530Z,1003.70
2023-01-10T05:24:22.514Z,1003.66
2023-01-10T05:25:22.512Z,1003.75
2023-01-10T05:26:22.494Z,1003.67
2023-01-10T05:27:22.473Z,1003.80
2023-01-10T05:28:22.482Z,1003.80
2023-01-10T05:29:22.463Z,1003.81
2023-01-10T05:30:22.528Z,1003.81
2023-01-10T05:31:22.470Z,1003.82
2023-01-10T05:32:22.397Z,1003.91
2023-01-10T05:33:22.388Z,1003.91
2023-01-10T05:34:22.377Z,1003.85
2023-01-10T05:35:22.407Z,1003.88
2023-01-10T05:36:22.365Z,1003.89
2023-01-10T05:37:22.346Z,1003.97
2023-01-10T05:38:22.343Z,1003.98
2023-01-10T05:39:22.317Z,1003.95
2023-01-10T05:40:22.325Z,1003.96
2023-01-10T05:41:22.304Z,1003.99
2023-01-10T05:42:22.272Z,1004.04
2023-01-10T05:43:22.256Z,1004.00
2023-01-10T05:44:22.264Z,1004.04
2023-01-10T05:45:22.249Z,1004.03
2023-01-10T05:46:22.265Z,1004.05
2023-01-10T05:47:22.201Z,1004.07
2023-01-10T05:48:22.192Z,1004.04
2023-01-10T05:49:22.178Z,1004.07
2023-01-10T05:50:22.159Z,1004.13
2023-01-10T05:51:22.163Z,1004.12
2023-01-10T05:52:22.148Z,1004.14
2023-01-10T05:53:22.127Z,1004.16
2023-01-10T05:54:22.108Z,1004.17
2023-01-10T05:55:22.110Z,1004.13
2023-01-10T05:56:22.164Z,1004.09
2023-01-10T05:57:22.077Z,1004.13
2023-01-10T05:58:22.062Z,1004.19
2023-01-10T05:59:28.737Z,1004.26
2023-01-10T06:00:25.023Z,1004.28
2023-01-10T06:01:22.117Z,1004.26
2023-01-10T06:02:22.142Z,1004.29
2023-01-10T06:03:22.012Z,1004.30
2023-01-10T06:04:21.988Z,1004.33
2023-01-10T06:05:21.970Z,1004.27
2023-01-10T06:06:21.970Z,1004.29
2023-01-10T06:07:21.939Z,1004.27
2023-01-10T06:08:21.932Z,1004.29
2023-01-10T06:09:21.918Z,1004.24
2023-01-10T06:10:21.905Z,1004.32
2023-01-10T06:11:21.907Z,1004.36
2023-01-10T06:12:21.886Z,1004.39
2023-01-10T06:13:21.865Z,1004.41
2023-01-10T06:14:21.847Z,1004.45
2023-01-10T06:15:21.847Z,1004.43
2023-01-10T06:16:21.861Z,1004.44
2023-01-10T06:17:21.812Z,1004.48
2023-01-10T06:18:21.826Z,1004.54
2023-01-10T06:19:21.792Z,1004.54
2023-01-10T06:20:21.769Z,1004.55
2023-01-10T06:21:21.769Z,1004.55
2023-01-10T06:22:21.763Z,1004.59
2023-01-10T06:23:21.760Z,1004.67
2023-01-10T06:24:21.717Z,1004.67
2023-01-10T06:25:21.709Z,1004.70
2023-01-10T06:26:21.696Z,1004.71
2023-01-10T06:27:21.717Z,1004.71
2023-01-10T06:28:21.674Z,1004.74
2023-01-10T06:29:21.671Z,1004.78
2023-01-10T06:30:21.673Z,1004.84
2023-01-10T06:31:22.751Z,1004.81
2023-01-10T06:32:22.492Z,1004.86
2023-01-10T06:33:21.606Z,1004.91
2023-01-10T06:34:21.620Z,1004.82
2023-01-10T06:35:21.583Z,1004.95
2023-01-10T06:36:21.583Z,1004.79
2023-01-10T06:37:21.566Z,1004.91
2023-01-10T06:38:21.538Z,1004.99
2023-01-10T06:39:21.526Z,1005.02
2023-01-10T06:40:21.517Z,1005.03
2023-01-10T06:41:21.512Z,1005.05
2023-01-10T06:42:21.519Z,1005.04
2023-01-10T06:43:21.485Z,1005.11
2023-01-10T06:44:21.485Z,1005.13
2023-01-10T06:45:21.462Z,1005.18
2023-01-10T06:46:21.529Z,1005.19
2023-01-10T06:47:21.493Z,1005.15
2023-01-10T06:48:21.414Z,1005.15
2023-01-10T06:49:21.429Z,1005.20
2023-01-10T06:50:21.421Z,1005.20
2023-01-10T06:51:21.394Z,1005.15
2023-01-10T06:52:21.404Z,1005.24
2023-01-10T06:53:21.365Z,1005.21
2023-01-10T06:54:21.367Z,1005.16
2023-01-10T06:55:21.328Z,1005.23
2023-01-10T06:56:21.311Z,1005.19
2023-01-10T06:57:21.328Z,1005.21
2023-01-10T06:58:21.294Z,1005.21
2023-01-10T06:59:21.296Z,1005.25
2023-01-10T07:00:21.293Z,1005.25
2023-01-10T07:01:21.357Z,1005.26
2023-01-10T07:02:21.334Z,1005.32
2023-01-10T07:03:21.220Z,1005.29
2023-01-10T07:04:21.201Z,1005.27
2023-01-10T07:05:21.188Z,1005.31
2023-01-10T07:06:21.195Z,1005.31
2023-01-10T07:07:21.186Z,1005.39
2023-01-10T07:08:21.153Z,1005.46
2023-01-10T07:09:21.141Z,1005.48
2023-01-10T07:10:21.128Z,1005.57
2023-01-10T07:11:21.110Z,1005.55
2023-01-10T07:12:21.111Z,1005.60
2023-01-10T07:13:21.089Z,1005.58
2023-01-10T07:14:21.076Z,1005.64
2023-01-10T07:15:21.062Z,1005.69
2023-01-10T07:16:21.099Z,1005.70
2023-01-10T07:17:21.063Z,1005.69
2023-01-10T07:18:21.032Z,1005.67
2023-01-10T07:19:21.017Z,1005.63
2023-01-10T07:20:21.007Z,1005.61
2023-01-10T07:21:20.981Z,1005.61
2023-01-10T07:22:21.010Z,1005.58
2023-01-10T07:23:20.974Z,1005.53
2023-01-10T07:24:20.946Z,1005.56
2023-01-10T07:25:20.937Z,1005.54
2023-01-10T07:26:20.921Z,1005.58
2023-01-10T07:27:20.919Z,1005.52
2023-01-10T07:28:20.899Z,1005.57
2023-01-10T07:29:20.883Z,1005.54
2023-01-10T07:30:20.892Z,1005.55
2023-01-10T07:31:20.990Z,1005.63
2023-01-10T07:32:20.844Z,1005.66
2023-01-10T07:33:20.839Z,1005.62
2023-01-10T07:34:20.811Z,1005.69
2023-01-10T07:35:20.806Z,1005.72
2023-01-10T07:36:20.791Z,1005.72
2023-01-10T07:37:20.773Z,1005.74
2023-01-10T07:38:20.799Z,1005.71
2023-01-10T07:39:20.774Z,1005.77
2023-01-10T07:40:20.746Z,1005.77
2023-01-10T07:41:20.727Z,1005.86
2023-01-10T07:42:20.714Z,1005.82
2023-01-10T07:43:20.715Z,1005.86
2023-01-10T07:44:20.687Z,1005.88
2023-01-10T07:45:20.673Z,1005.89
2023-01-10T07:46:20.684Z,1005.94
2023-01-10T07:47:20.650Z,1005.97
2023-01-10T07:48:20.661Z,1006.07
2023-01-10T07:49:20.626Z,1006.05
2023-01-10T07:50:20.616Z,1005.99
2023-01-10T07:51:20.598Z,1006.05
2023-01-10T07:52:20.596Z,1006.13
2023-01-10T07:53:20.583Z,1006.13
2023-01-10T07:54:20.585Z,1006.14
2023-01-10T07:55:20.550Z,1006.13
2023-01-10T07:56:20.546Z,1006.10
2023-01-10T07:57:20.517Z,1006.11
2023-01-10T07:58:20.528Z,1006.12
2023-01-10T07:59:20.498Z,1006.09
2023-01-10T08:00:20.494Z,1006.09
2023-01-10T08:01:20.505Z,1006.08
2023-01-10T08:02:20.527Z,1006.06
2023-01-10T08:03:20.601Z,1006.09
2023-01-10T08:04:20.430Z,1006.14
2023-01-10T08:05:20.421Z,1006.27
2023-01-10T08:06:20.403Z,1006.24
2023-01-10T08:07:20.393Z,1006.31
2023-01-10T08:08:20.397Z,1006.27
2023-01-10T08:09:20.375Z,1006.17
2023-01-10T08:10:20.375Z,1006.20
2023-01-10T08:11:20.344Z,1006.16
2023-01-10T08:12:20.330Z,1006.25
2023-01-10T08:13:20.328Z,1006.30
2023-01-10T08:14:20.398Z,1006.29
2023-01-10T08:15:20.292Z,1006.37
2023-01-10T08:16:20.332Z,1006.40
2023-01-10T08:17:20.266Z,1006.42
2023-01-10T08:18:20.269Z,1006.39
2023-01-10T08:19:20.243Z,1006.46
2023-01-10T08:20:20.226Z,1006.37
2023-01-10T08:21:20.217Z,1006.35
2023-01-10T08:22:20.209Z,1006.28
2023-01-10T08:23:20.206Z,1006.25
2023-01-10T08:24:20.178Z,1006.19
2023-01-10T08:25:20.160Z,1006.23
2023-01-10T08:26:20.191Z,1006.28
2023-01-10T08:27:20.141Z,1006.31
2023-01-10T08:28:20.139Z,1006.34
2023-01-10T08:29:20.109Z,1006.32
2023-01-10T08:30:20.103Z,1006.29
2023-01-10T08:31:20.230Z,1006.30
2023-01-10T08:32:20.077Z,1006.25
2023-01-10T08:33:20.076Z,1006.30
2023-01-10T08:34:20.049Z,1006.41
2023-01-10T08:35:20.038Z,1006.41
2023-01-10T08:36:20.021Z,1006.59
2023-01-10T08:37:20.006Z,1006.48
2023-01-10T08:38:20.009Z,1006.44
2023-01-10T08:39:19.984Z,1006.46
2023-01-10T08:40:19.973Z,1006.44
2023-01-10T08:41:19.951Z,1006.46
2023-01-10T08:42:19.973Z,1006.50
2023-01-10T08:43:19.948Z,1006.56
2023-01-10T08:44:19.931Z,1006.60
2023-01-10T08:45:19.913Z,1006.63
2023-01-10T08:46:19.913Z,1006.59
2023-01-10T08:47:19.882Z,1006.70
2023-01-10T08:48:19.895Z,1006.68
2023-01-10T08:49:19.855Z,1006.68
2023-01-10T08:50:19.848Z,1006.72
2023-01-10T08:51:19.838Z,1006.72
2023-01-10T08:52:19.824Z,1006.70
2023-01-10T08:53:19.814Z,1006.67
2023-01-10T08:54:19.792Z,1006.73
2023-01-10T08:55:19.773Z,1006.71
2023-01-10T08:56:19.764Z,1006.70
2023-01-10T08:57:19.751Z,1006.80
2023-01-10T08:58:19.773Z,1006.81
2023-01-10T08:59:19.728Z,1006.83
2023-01-10T09:00:19.716Z,1006.85
2023-01-10T09:01:19.866Z,1006.88
2023-01-10T09:02:19.812Z,1006.88
2023-01-10T09:03:19.730Z,1006.86
2023-01-10T09:04:19.692Z,1006.88
2023-01-10T09:05:27.479Z,1006.88
2023-01-10T09:06:20.643Z,1006.91
2023-01-10T09:07:19.625Z,1006.85
2023-01-10T09:08:19.608Z,1006.90
2023-01-10T09:09:19.610Z,1006.92
2023-01-10T09:10:19.584Z,1006.95
2023-01-10T09:11:19.570Z,1006.90
2023-01-10T09:12:19.560Z,1006.79
2023-01-10T09:13:19.540Z,1006.78
2023-01-10T09:14:19.564Z,1006.82
2023-01-10T09:15:19.519Z,1006.80
2023-01-10T09:16:19.582Z,1006.80
2023-01-10T09:17:19.490Z,1006.83
2023-01-10T09:18:21.270Z,1006.85
2023-01-10T09:19:19.475Z,1006.92
2023-01-10T09:20:19.460Z,1006.96
2023-01-10T09:21:19.469Z,1006.95
2023-01-10T09:22:19.432Z,1006.96
2023-01-10T09:23:19.413Z,1006.94
2023-01-10T09:24:19.423Z,1006.93
2023-01-10T09:25:19.383Z,1007.00
2023-01-10T09:26:19.379Z,1006.90
2023-01-10T09:27:19.365Z,1006.93
2023-01-10T09:28:19.355Z,1006.96
2023-01-10T09:29:19.348Z,1007.02
2023-01-10T09:30:19.348Z,1007.11
2023-01-10T09:31:19.363Z,1007.04
2023-01-10T09:32:19.296Z,1007.11
2023-01-10T09:33:19.284Z,1007.13
2023-01-10T09:34:19.285Z,1007.21
2023-01-10T09:35:19.257Z,1007.19
2023-01-10T09:36:19.253Z,1007.21
2023-01-10T09:37:19.230Z,1007.18
2023-01-10T09:38:19.222Z,1007.22
2023-01-10T09:39:19.220Z,1007.22
2023-01-10T09:40:19.212Z,1007.20
2023-01-10T09:41:19.178Z,1007.21
2023-01-10T09:42:19.172Z,1007.19
2023-01-10T09:43:19.159Z,1007.23
2023-01-10T09:44:19.167Z,1007.26
2023-01-10T09:45:19.128Z,1007.21
2023-01-10T09:46:19.298Z,1007.23
2023-01-10T09:47:22.806Z,1007.23
2023-01-10T09:48:19.097Z,1007.27
2023-01-10T09:49:19.091Z,1007.27
2023-01-10T09:50:19.167Z,1007.26
2023-01-10T09:51:19.043Z,1007.21
2023-01-10T09:52:19.042Z,1007.28
2023-01-10T09:53:19.023Z,1007.32
2023-01-10T09:54:19.026Z,1007.32
2023-01-10T09:55:18.993Z,1007.41
2023-01-10T09:56:18.983Z,1007.34
2023-01-10T09:57:19.007Z,1007.36
2023-01-10T09:58:18.955Z,1007.42
2023-01-10T09:59:18.960Z,1007.45
2023-01-10T10:00:18.970Z,1007.47
2023-01-10T10:01:18.951Z,1007.49
2023-01-10T10:02:18.931Z,1007.41
2023-01-10T10:03:19.026Z,1007.41
2023-01-10T10:04:19.011Z,1007.41
2023-01-10T10:05:18.876Z,1007.34
2023-01-10T10:06:18.860Z,1007.37
2023-01-10T10:07:18.851Z,1007.35
2023-01-10T10:08:18.828Z,1007.41
2023-01-10T10:09:18.827Z,1007.37
2023-01-10T10:10:18.831Z,1007.37
2023-01-10T10:11:18.783Z,1007.47
2023-01-10T10:12:18.775Z,1007.37
2023-01-10T10:13:26.796Z,1007.51
2023-01-10T10:14:18.765Z,1007.54
2023-01-10T10:15:18.736Z,1007.78
2023-01-10T10:16:18.755Z,1007.43
2023-01-10T10:17:18.723Z,1007.38
2023-01-10T10:18:18.734Z,1007.73
2023-01-10T10:19:18.707Z,1007.73
2023-01-10T10:20:18.679Z,1007.60
2023-01-10T10:21:18.659Z,1007.62
2023-01-10T10:22:19.955Z,1007.63
2023-01-10T10:23:18.637Z,1007.56
2023-01-10T10:24:18.630Z,1007.52
2023-01-10T10:25:18.618Z,1007.16
2023-01-10T10:26:18.597Z,1007.17
2023-01-10T10:27:18.577Z,1007.24
2023-01-10T10:28:18.569Z,1007.38
2023-01-10T10:29:18.566Z,1007.22
2023-01-10T10:30:18.539Z,1007.15
2023-01-10T10:31:18.567Z,1007.13
2023-01-10T10:32:18.526Z,1007.52
2023-01-10T10:33:18.501Z,1007.57
2023-01-10T10:34:18.505Z,1007.54
2023-01-10T10:35:18.503Z,1007.49
2023-01-10T10:36:18.462Z,1007.47
2023-01-10T10:37:18.444Z,1007.44
2023-01-10T10:38:18.435Z,1007.48
2023-01-10T10:39:18.419Z,1007.47
2023-01-10T10:40:18.447Z,1007.46
2023-01-10T10:41:18.391Z,1007.47
2023-01-10T10:42:18.382Z,1007.01
2023-01-10T10:43:18.382Z,1007.41
2023-01-10T10:44:18.367Z,1007.38
2023-01-10T10:45:18.360Z,1007.25
2023-01-10T10:46:18.351Z,1007.47
2023-01-10T10:47:18.317Z,1007.43
2023-01-10T10:48:18.309Z,1007.47
2023-01-10T10:49:18.833Z,1007.51
2023-01-10T10:50:18.311Z,1007.50
2023-01-10T10:51:18.267Z,1007.41
2023-01-10T10:52:18.248Z,1007.53
2023-01-10T10:53:18.233Z,1007.26
2023-01-10T10:54:18.237Z,1007.36
2023-01-10T10:55:18.224Z,1007.14
2023-01-10T10:56:18.197Z,1007.57
2023-01-10T10:57:18.180Z,1007.52
2023-01-10T10:58:18.185Z,1007.55
2023-01-10T10:59:18.160Z,1007.50
2023-01-10T11:00:18.169Z,1007.47
2023-01-10T11:01:18.210Z,1007.51
2023-01-10T11:02:18.117Z,1007.47
2023-01-10T11:03:18.122Z,1007.23
2023-01-10T11:04:18.093Z,1007.26
2023-01-10T11:05:18.110Z,1007.26
2023-01-10T11:06:18.083Z,1007.12
2023-01-10T11:07:18.058Z,1007.19
2023-01-10T11:08:18.048Z,1007.23
2023-01-10T11:09:18.028Z,1007.36
2023-01-10T11:10:18.029Z,1007.55
2023-01-10T11:11:18.001Z,1007.09
2023-01-10T11:12:17.989Z,1007.08
2023-01-10T11:13:17.983Z,1007.08
2023-01-10T11:14:17.962Z,1007.26
2023-01-10T11:15:17.960Z,1007.12
2023-01-10T11:16:17.952Z,1007.15
2023-01-10T11:17:17.919Z,1007.09
2023-01-10T11:18:17.918Z,1007.07
2023-01-10T11:19:17.942Z,1007.08
2023-01-10T11:20:17.894Z,1007.09
2023-01-10T11:21:19.660Z,1007.32
2023-01-10T11:22:17.906Z,1007.11
2023-01-10T11:23:17.845Z,1007.07
2023-01-10T11:24:17.825Z,1007.10
2023-01-10T11:25:17.828Z,1007.13
2023-01-10T11:26:17.814Z,1007.17
2023-01-10T11:27:17.792Z,1007.14
2023-01-10T11:28:17.782Z,1007.20
2023-01-10T11:29:17.796Z,1007.15
2023-01-10T11:30:17.773Z,1007.24
2023-01-10T11:31:17.807Z,1007.19
2023-01-10T11:32:17.730Z,1007.26
2023-01-10T11:33:17.722Z,1007.17
2023-01-10T11:34:17.697Z,1007.19
2023-01-10T11:35:17.770Z,1007.12
2023-01-10T11:36:17.679Z,1007.27
2023-01-10T11:37:17.659Z,1007.15
2023-01-10T11:38:17.666Z,1007.26
2023-01-10T11:39:17.636Z,1007.54
2023-01-10T11:40:17.629Z,1007.41
2023-01-10T11:41:17.625Z,1007.34
2023-01-10T11:42:17.594Z,1007.39
2023-01-10T11:43:17.586Z,1007.05
2023-01-10T11:44:17.576Z,1007.10
2023-01-10T11:45:17.563Z,1007.03
2023-01-10T11:46:17.633Z,1007.15
2023-01-10T11:47:17.537Z,1007.11
2023-01-10T11:48:18.589Z,1007.17
2023-01-10T11:49:17.514Z,1007.07
2023-01-10T11:50:17.492Z,1007.13
2023-01-10T11:51:17.493Z,1007.09
2023-01-10T11:52:17.467Z,1007.11
2023-01-10T11:53:17.452Z,1007.13
2023-01-10T11:54:17.474Z,1007.16
2023-01-10T11:55:17.426Z,1007.17
2023-01-10T11:56:17.432Z,1007.09
2023-01-10T11:57:17.401Z,1007.13
2023-01-10T11:58:17.394Z,1007.09
2023-01-10T11:59:17.382Z,1007.15
2023-01-10T12:00:17.356Z,1007.16
2023-01-10T12:01:17.396Z,1007.24
2023-01-10T12:02:17.434Z,1007.10
2023-01-10T12:03:17.322Z,1007.11
2023-01-10T12:04:17.310Z,1007.13
2023-01-10T12:05:17.406Z,1007.42
2023-01-10T12:06:17.330Z,1007.10
2023-01-10T12:07:17.275Z,1007.03
2023-01-10T12:08:17.263Z,1007.09